Time;durP1;ratioP1;P1;durP2;ratioP2;P2;SDS_P1;SDS_P2;PMS_P1;PMS_P2;Temp;Humidity;BMP_temperature;BMP_pressure;BME280_temperature;BME280_humidity;BME280_pressure;Samples;Min_cycle;Max_cycle;Signal;HPM_P1;HPM_P2
2021/08/25 00:00:46;;;;;;;14.77;8.52;;;15.90;78.10;;;;;;5032440;28;20041;-88
2021/08/25 00:03:14;;;;;;;14.80;9.43;;;15.90;78.20;;;;;;5032509;28;20555;-90
2021/08/25 00:05:42;;;;;;;16.90;10.80;;;15.90;78.20;;;;;;5017413;28;20053;-90
2021/08/25 00:08:09;;;;;;;17.23;11.10;;;15.80;78.20;;;;;;5029990;28;20053;-91
2021/08/25 00:10:36;;;;;;;17.35;10.77;;;15.80;78.20;;;;;;5032410;28;20050;-88
2021/08/25 00:13:06;;;;;;;15.75;10.68;;;15.80;78.20;;;;;;5032027;28;20049;-90
2021/08/25 00:15:35;;;;;;;14.85;11.00;;;15.80;78.20;;;;;;5030830;28;20507;-91
2021/08/25 00:18:03;;;;;;;15.65;10.65;;;15.80;78.30;;;;;;5031960;28;20050;-92
2021/08/25 00:20:30;;;;;;;14.02;9.45;;;15.70;78.20;;;;;;5032598;28;20561;-90
2021/08/25 00:22:57;;;;;;;18.27;11.32;;;15.70;78.10;;;;;;5032283;28;20045;-89
2021/08/25 00:25:27;;;;;;;15.38;11.05;;;15.70;78.10;;;;;;5031689;28;20049;-88
2021/08/25 00:27:54;;;;;;;16.67;11.43;;;15.70;78.10;;;;;;5031677;28;20068;-90
2021/08/25 00:30:21;;;;;;;17.80;11.70;;;15.70;78.10;;;;;;5031521;28;20100;-90
2021/08/25 00:32:49;;;;;;;17.10;10.63;;;15.70;78.10;;;;;;5031781;28;20049;-90
2021/08/25 00:35:17;;;;;;;15.27;11.70;;;15.70;78.10;;;;;;5033091;28;20144;-89
2021/08/25 00:37:44;;;;;;;16.02;12.25;;;15.60;78.10;;;;;;5031037;28;20577;-91
2021/08/25 00:40:12;;;;;;;15.93;11.27;;;15.60;78.20;;;;;;5029498;28;20045;-89
2021/08/25 00:42:39;;;;;;;17.10;11.77;;;15.60;78.30;;;;;;5031163;28;20511;-92
2021/08/25 00:45:08;;;;;;;19.40;13.05;;;15.50;78.30;;;;;;5031380;28;20045;-90
2021/08/25 00:47:39;;;;;;;17.58;12.82;;;15.50;78.40;;;;;;5031283;28;20046;-90
2021/08/25 00:50:08;;;;;;;18.20;13.60;;;15.50;78.50;;;;;;5033056;28;20057;-89
2021/08/25 00:52:40;;;;;;;20.15;13.25;;;15.40;78.60;;;;;;5030925;28;20049;-91
2021/08/25 00:55:08;;;;;;;16.77;13.50;;;15.40;78.70;;;;;;5029664;28;20103;-90
2021/08/25 00:57:36;;;;;;;18.40;13.50;;;15.40;78.70;;;;;;5029956;28;20103;-88
2021/08/25 01:00:07;;;;;;;16.77;12.95;;;15.40;78.70;;;;;;5029873;28;20041;-90
2021/08/25 01:02:50;;;;;;;18.88;14.65;;;15.40;78.70;;;;;;5029857;28;20053;-89
2021/08/25 01:05:18;;;;;;;20.35;16.05;;;15.40;78.80;;;;;;5031940;28;20054;-88
2021/08/25 01:07:46;;;;;;;16.63;14.35;;;15.30;78.80;;;;;;5031777;28;20060;-89
2021/08/25 01:10:33;;;;;;;14.52;12.02;;;15.30;78.90;;;;;;5030797;28;20046;-89
2021/08/25 01:13:02;;;;;;;24.55;15.52;;;15.30;79.10;;;;;;5030813;28;20107;-89
2021/08/25 01:15:30;;;;;;;20.83;14.82;;;15.30;79.10;;;;;;5030711;28;20045;-90
2021/08/25 01:17:59;;;;;;;21.45;14.25;;;15.30;79.10;;;;;;5030788;28;20075;-89
2021/08/25 01:20:27;;;;;;;14.98;12.10;;;15.30;79.00;;;;;;5030470;28;20045;-89
2021/08/25 01:22:55;;;;;;;18.58;13.07;;;15.30;79.00;;;;;;5049223;28;20100;-90
2021/08/25 01:25:25;;;;;;;17.70;14.73;;;15.30;78.90;;;;;;5027123;28;20054;-89
2021/08/25 01:27:58;;;;;;;16.70;14.55;;;15.30;78.90;;;;;;5030368;28;20049;-89
2021/08/25 01:30:28;;;;;;;19.60;15.27;;;15.30;78.80;;;;;;5030375;28;20511;-87
2021/08/25 01:32:58;;;;;;;21.25;15.65;;;15.20;78.80;;;;;;5029079;28;20115;-87
2021/08/25 01:35:46;;;;;;;16.52;13.95;;;15.20;78.80;;;;;;5029212;28;20045;-89
2021/08/25 01:38:37;;;;;;;19.77;14.52;;;15.20;78.80;;;;;;5021090;28;20053;-89
2021/08/25 01:41:04;;;;;;;23.65;16.20;;;15.20;78.80;;;;;;5027531;28;20050;-88
2021/08/25 01:43:32;;;;;;;28.27;16.25;;;15.20;78.80;;;;;;5028169;28;20050;-90
2021/08/25 01:45:59;;;;;;;25.45;17.77;;;15.10;78.80;;;;;;5030454;28;20058;-89
2021/08/25 01:48:26;;;;;;;20.80;16.40;;;15.10;79.00;;;;;;5029853;28;20064;-89
2021/08/25 01:50:53;;;;;;;17.90;14.52;;;15.00;79.00;;;;;;5028654;28;20041;-89
2021/08/25 01:53:20;;;;;;;20.13;16.08;;;15.00;79.00;;;;;;5031155;28;20499;-88
2021/08/25 01:55:47;;;;;;;19.30;16.20;;;15.00;79.00;;;;;;5031564;28;20057;-88
2021/08/25 01:58:14;;;;;;;18.20;15.95;;;15.10;78.90;;;;;;5030104;28;20042;-88
2021/08/25 02:00:40;;;;;;;15.35;13.73;;;15.00;78.90;;;;;;5029969;28;20042;-88
2021/08/25 02:03:08;;;;;;;19.23;14.90;;;15.00;78.90;;;;;;5029944;28;20045;-89
2021/08/25 02:05:35;;;;;;;19.13;15.95;;;15.00;78.90;;;;;;5030331;28;20573;-85
2021/08/25 02:08:02;;;;;;;20.00;17.40;;;15.00;78.80;;;;;;5032057;28;20091;-88
2021/08/25 02:10:29;;;;;;;20.05;15.25;;;15.00;78.80;;;;;;5030182;28;20100;-88
2021/08/25 02:12:56;;;;;;;19.13;17.02;;;15.00;78.80;;;;;;5028470;28;20069;-88
2021/08/25 02:15:23;;;;;;;19.30;16.77;;;14.90;78.90;;;;;;5029987;28;20107;-89
2021/08/25 02:17:50;;;;;;;20.83;15.93;;;14.90;78.90;;;;;;5028554;28;20049;-88
2021/08/25 02:20:17;;;;;;;20.88;16.02;;;14.90;78.90;;;;;;5031515;28;20485;-90
2021/08/25 02:22:43;;;;;;;19.15;16.58;;;14.90;78.80;;;;;;5029836;28;20062;-88
2021/08/25 02:25:10;;;;;;;20.60;16.17;;;14.90;78.80;;;;;;5028273;28;20041;-89
2021/08/25 02:27:37;;;;;;;20.55;15.35;;;14.90;78.80;;;;;;5029727;28;20490;-88
2021/08/25 02:30:05;;;;;;;18.90;15.35;;;14.90;78.70;;;;;;5028459;28;20466;-88
2021/08/25 02:32:32;;;;;;;18.52;16.20;;;14.90;78.70;;;;;;5029675;28;20064;-88
2021/08/25 02:34:59;;;;;;;19.98;15.45;;;14.90;78.60;;;;;;5031945;28;20045;-89
2021/08/25 02:37:25;;;;;;;17.48;13.95;;;14.80;78.50;;;;;;5029574;28;20045;-88
2021/08/25 02:39:55;;;;;;;22.02;16.60;;;14.80;78.40;;;;;;5029925;28;20184;-90
2021/08/25 02:42:22;;;;;;;19.30;13.77;;;14.90;78.30;;;;;;5029661;28;20053;-88
2021/08/25 02:44:49;;;;;;;16.63;14.75;;;14.80;78.30;;;;;;5029781;28;20042;-88
2021/08/25 02:47:16;;;;;;;18.08;15.50;;;14.80;78.30;;;;;;5030690;28;20045;-88
2021/08/25 02:49:43;;;;;;;16.45;14.68;;;14.80;78.20;;;;;;5030245;28;20061;-89
2021/08/25 02:52:09;;;;;;;20.15;15.70;;;14.80;78.10;;;;;;5028199;28;20095;-88
2021/08/25 02:54:36;;;;;;;18.88;14.90;;;14.80;77.90;;;;;;5029618;28;20102;-89
2021/08/25 02:57:03;;;;;;;20.77;15.45;;;14.70;77.90;;;;;;5027426;28;20046;-88
2021/08/25 02:59:30;;;;;;;18.83;15.63;;;14.70;77.80;;;;;;5029653;28;20053;-87
2021/08/25 03:01:57;;;;;;;18.38;15.18;;;14.70;77.80;;;;;;5031293;28;20116;-88
2021/08/25 03:04:24;;;;;;;24.83;14.52;;;14.70;77.70;;;;;;5032004;28;20144;-89
2021/08/25 03:06:51;;;;;;;17.63;15.23;;;14.70;77.60;;;;;;5032776;28;20092;-88
2021/08/25 03:09:18;;;;;;;16.77;13.93;;;14.60;77.60;;;;;;5033071;28;20565;-90
2021/08/25 03:11:45;;;;;;;16.63;14.05;;;14.60;77.60;;;;;;5033118;28;20046;-90
2021/08/25 03:14:12;;;;;;;16.75;13.32;;;14.60;77.50;;;;;;5034623;28;20107;-89
2021/08/25 03:16:39;;;;;;;18.02;14.57;;;14.60;77.50;;;;;;5033402;28;20045;-90
2021/08/25 03:19:06;;;;;;;16.52;14.00;;;14.60;77.40;;;;;;5032722;28;20045;-88
2021/08/25 03:21:33;;;;;;;15.60;12.43;;;14.60;77.30;;;;;;5032746;28;20049;-89
2021/08/25 03:24:00;;;;;;;15.68;12.77;;;14.60;77.30;;;;;;5032775;28;20099;-89
2021/08/25 03:26:27;;;;;;;25.13;16.58;;;14.50;77.20;;;;;;5032548;28;20508;-89
2021/08/25 03:28:53;;;;;;;16.58;14.82;;;14.50;77.20;;;;;;5034858;28;20531;-89
2021/08/25 03:31:20;;;;;;;16.20;13.82;;;14.50;77.20;;;;;;5030875;28;20447;-89
2021/08/25 03:33:47;;;;;;;16.70;13.07;;;14.50;77.10;;;;;;5032658;28;20055;-88
2021/08/25 03:36:14;;;;;;;21.13;15.95;;;14.50;76.90;;;;;;5031451;28;20099;-89
2021/08/25 03:38:41;;;;;;;17.20;13.85;;;14.50;76.80;;;;;;5017022;28;20042;-88
2021/08/25 03:41:08;;;;;;;16.70;13.23;;;14.40;76.90;;;;;;5030380;28;20053;-89
2021/08/25 03:43:35;;;;;;;16.05;13.50;;;14.40;77.00;;;;;;5032540;28;20458;-90
2021/08/25 03:46:01;;;;;;;21.73;15.13;;;14.40;77.00;;;;;;5032032;28;20049;-88
2021/08/25 03:48:29;;;;;;;18.33;16.10;;;14.40;77.10;;;;;;5032059;28;20055;-89
2021/08/25 03:50:56;;;;;;;15.68;13.95;;;14.40;77.10;;;;;;5032145;28;20523;-88
2021/08/25 03:53:23;;;;;;;22.48;17.23;;;14.40;77.20;;;;;;5032800;28;20049;-88
2021/08/25 03:55:49;;;;;;;16.98;14.63;;;14.30;77.10;;;;;;5034111;28;20053;-88
2021/08/25 03:58:16;;;;;;;16.60;14.20;;;14.30;77.20;;;;;;5032018;28;20466;-88
2021/08/25 04:00:43;;;;;;;17.88;15.88;;;14.30;77.20;;;;;;5031783;28;20091;-88
2021/08/25 04:03:10;;;;;;;18.95;15.32;;;14.30;77.20;;;;;;5030893;28;20396;-89
2021/08/25 04:05:37;;;;;;;21.27;19.05;;;14.20;77.20;;;;;;5031237;28;20049;-89
2021/08/25 04:08:04;;;;;;;21.27;17.63;;;14.20;77.20;;;;;;5033916;28;20123;-89
2021/08/25 04:10:31;;;;;;;18.40;16.42;;;14.20;77.30;;;;;;5030619;28;20460;-89
2021/08/25 04:12:58;;;;;;;19.88;17.00;;;14.20;77.30;;;;;;5031780;28;20133;-90
2021/08/25 04:15:25;;;;;;;17.05;14.98;;;14.20;77.40;;;;;;5029209;28;20045;-89
2021/08/25 04:17:52;;;;;;;18.67;16.67;;;14.20;77.50;;;;;;5031753;28;20042;-89
2021/08/25 04:20:19;;;;;;;19.80;17.13;;;14.10;77.40;;;;;;5033007;28;20084;-89
2021/08/25 04:22:46;;;;;;;23.83;18.23;;;14.10;77.50;;;;;;5032937;28;20046;-89
2021/08/25 04:25:13;;;;;;;24.20;20.75;;;14.10;77.50;;;;;;5031618;28;20087;-89
2021/08/25 04:27:40;;;;;;;19.25;16.95;;;14.00;77.50;;;;;;5031442;28;20041;-91
2021/08/25 04:30:07;;;;;;;21.38;17.17;;;14.00;77.60;;;;;;5031316;28;20045;-89
2021/08/25 04:32:34;;;;;;;18.17;15.88;;;14.00;77.60;;;;;;5031831;28;20500;-89
2021/08/25 04:35:01;;;;;;;18.73;15.63;;;14.00;77.50;;;;;;5033465;28;20050;-89
2021/08/25 04:37:28;;;;;;;20.05;16.92;;;14.00;77.40;;;;;;5031245;28;20053;-90
2021/08/25 04:39:55;;;;;;;19.00;16.25;;;14.00;77.40;;;;;;5031483;28;20111;-91
2021/08/25 04:42:21;;;;;;;19.58;16.55;;;13.90;77.40;;;;;;5030914;28;20053;-90
2021/08/25 04:44:48;;;;;;;21.80;17.85;;;13.90;77.50;;;;;;5031406;28;20049;-90
2021/08/25 04:47:15;;;;;;;18.85;16.33;;;13.90;77.50;;;;;;5032729;28;20053;-90
2021/08/25 04:49:42;;;;;;;21.77;16.50;;;13.90;77.50;;;;;;5030383;28;20057;-90
2021/08/25 04:52:14;;;;;;;17.95;15.07;;;13.90;77.40;;;;;;5030132;28;20146;-90
2021/08/25 04:54:41;;;;;;;16.77;14.85;;;13.90;77.40;;;;;;5029973;28;20068;-90
2021/08/25 04:57:07;;;;;;;22.90;16.38;;;13.90;77.30;;;;;;5030908;28;20169;-89
2021/08/25 04:59:34;;;;;;;22.42;17.50;;;13.80;77.20;;;;;;5031373;28;20053;-89
2021/08/25 05:02:01;;;;;;;18.50;16.60;;;13.80;77.10;;;;;;5033280;28;20046;-91
2021/08/25 05:04:29;;;;;;;25.00;18.17;;;13.80;77.20;;;;;;5030973;28;20057;-90
2021/08/25 05:06:55;;;;;;;19.90;17.77;;;13.80;77.20;;;;;;5030992;28;20045;-90
2021/08/25 05:09:22;;;;;;;20.58;17.52;;;13.70;77.20;;;;;;5031010;28;20046;-91
2021/08/25 05:11:49;;;;;;;25.45;20.80;;;13.70;77.40;;;;;;5029724;28;20503;-89
2021/08/25 05:14:16;;;;;;;22.17;17.67;;;13.70;77.50;;;;;;5032475;28;20053;-91
2021/08/25 05:16:43;;;;;;;21.73;16.90;;;13.70;77.50;;;;;;5031781;28;20115;-88
2021/08/25 05:19:10;;;;;;;25.83;18.65;;;13.70;77.60;;;;;;5030950;28;20050;-90
2021/08/25 05:21:37;;;;;;;21.48;19.20;;;13.60;77.60;;;;;;5030980;28;20100;-89
2021/08/25 05:24:04;;;;;;;19.63;16.33;;;13.70;77.60;;;;;;5031301;28;20049;-90
2021/08/25 05:26:31;;;;;;;20.20;16.52;;;13.70;77.60;;;;;;5030172;28;20053;-92
2021/08/25 05:28:58;;;;;;;18.67;15.73;;;13.70;77.50;;;;;;5031580;28;20573;-91
2021/08/25 05:31:25;;;;;;;22.35;17.70;;;13.60;77.50;;;;;;5030863;28;20463;-92
2021/08/25 05:33:52;;;;;;;21.08;17.13;;;13.60;77.50;;;;;;5029749;28;20053;-90
2021/08/25 05:36:19;;;;;;;23.58;17.45;;;13.60;77.60;;;;;;5030820;28;20099;-89
2021/08/25 05:38:46;;;;;;;22.23;19.40;;;13.60;77.60;;;;;;5030949;28;20095;-90
2021/08/25 05:41:13;;;;;;;18.92;16.92;;;13.70;77.60;;;;;;5032327;28;20118;-90
2021/08/25 05:43:40;;;;;;;19.08;17.08;;;13.60;77.60;;;;;;5028941;28;20053;-91
2021/08/25 05:46:11;;;;;;;25.17;22.02;;;13.60;77.70;;;;;;5030758;28;20084;-90
2021/08/25 05:48:38;;;;;;;23.30;20.83;;;13.60;77.80;;;;;;5029812;28;20209;-91
2021/08/25 05:51:05;;;;;;;29.05;24.52;;;13.60;78.00;;;;;;5030641;28;20049;-90
2021/08/25 05:53:32;;;;;;;23.83;21.05;;;13.60;78.10;;;;;;5030794;28;20491;-90
2021/08/25 05:55:58;;;;;;;26.63;23.80;;;13.70;78.40;;;;;;5032474;28;20107;-89
2021/08/25 05:58:25;;;;;;;21.55;19.13;;;13.70;78.60;;;;;;5030577;28;20052;-91
2021/08/25 06:00:52;;;;;;;25.60;22.17;;;13.70;78.70;;;;;;5030444;28;20458;-91
2021/08/25 06:03:19;;;;;;;20.27;16.75;;;13.70;78.80;;;;;;5030513;28;20053;-91
2021/08/25 06:05:46;;;;;;;24.52;21.88;;;13.70;78.80;;;;;;5028282;28;20046;-89
2021/08/25 06:08:13;;;;;;;31.23;25.23;;;13.70;78.90;;;;;;5031989;28;20499;-91
2021/08/25 06:10:40;;;;;;;25.75;21.75;;;13.80;79.00;;;;;;5029528;28;20049;-91
2021/08/25 06:13:07;;;;;;;28.00;23.88;;;13.80;79.20;;;;;;5028400;28;20045;-90
2021/08/25 06:15:34;;;;;;;23.58;18.83;;;13.90;79.20;;;;;;5030636;28;20100;-91
2021/08/25 06:18:01;;;;;;;21.80;18.05;;;13.80;79.30;;;;;;5030538;28;20046;-90
2021/08/25 06:20:28;;;;;;;28.60;22.13;;;13.90;79.40;;;;;;5030533;28;20052;-91
2021/08/25 06:22:55;;;;;;;35.50;30.05;;;13.90;79.40;;;;;;5032470;28;20103;-90
2021/08/25 06:25:22;;;;;;;30.13;21.30;;;13.90;79.60;;;;;;5029980;28;20049;-90
2021/08/25 06:27:49;;;;;;;30.83;26.50;;;13.90;79.80;;;;;;5030207;28;20053;-90
2021/08/25 06:30:15;;;;;;;37.10;29.67;;;14.00;80.00;;;;;;5030528;28;20057;-91
2021/08/25 06:32:42;;;;;;;29.95;23.70;;;14.00;80.20;;;;;;5030494;28;20089;-89
2021/08/25 06:35:09;;;;;;;33.13;25.80;;;14.00;80.50;;;;;;5032555;28;20045;-90
2021/08/25 06:37:36;;;;;;;29.65;24.95;;;14.00;80.60;;;;;;5029886;28;20049;-89
2021/08/25 06:40:04;;;;;;;35.20;27.42;;;14.10;80.70;;;;;;5033138;28;20049;-89
2021/08/25 06:42:31;;;;;;;38.55;31.55;;;14.10;80.90;;;;;;5033572;28;20064;-88
2021/08/25 06:44:58;;;;;;;35.83;29.30;;;14.20;81.20;;;;;;5033820;28;20061;-89
2021/08/25 06:47:25;;;;;;;36.30;29.00;;;14.20;81.50;;;;;;5033910;28;20045;-90
2021/08/25 06:49:51;;;;;;;34.85;27.75;;;14.30;81.80;;;;;;5033833;28;20064;-87
2021/08/25 06:52:18;;;;;;;34.08;29.42;;;14.40;81.80;;;;;;5032411;28;20057;-89
2021/08/25 06:54:45;;;;;;;36.63;31.00;;;14.40;81.90;;;;;;5033169;28;20049;-91
2021/08/25 06:57:12;;;;;;;38.92;30.60;;;14.40;81.80;;;;;;5033726;28;20053;-93
2021/08/25 06:59:39;;;;;;;28.50;23.02;;;14.50;81.90;;;;;;5034530;28;20169;-88
2021/08/25 07:02:06;;;;;;;29.45;25.10;;;14.60;81.90;;;;;;5035100;28;20100;-91
2021/08/25 07:04:33;;;;;;;35.55;28.48;;;14.60;82.00;;;;;;5032374;28;20109;-89
2021/08/25 07:07:00;;;;;;;32.75;25.77;;;14.70;81.90;;;;;;5035161;28;20049;-90
2021/08/25 07:09:27;;;;;;;27.23;23.50;;;14.80;82.10;;;;;;5035501;28;20055;-92
2021/08/25 07:11:54;;;;;;;31.02;25.33;;;14.80;81.90;;;;;;5036130;28;20045;-90
2021/08/25 07:14:24;;;;;;;29.13;24.92;;;14.90;81.80;;;;;;5035212;28;20535;-93
2021/08/25 07:16:51;;;;;;;26.13;23.33;;;14.90;81.60;;;;;;5028412;28;20053;-87
2021/08/25 07:19:18;;;;;;;30.42;23.33;;;15.00;81.40;;;;;;5019131;28;20066;-89
2021/08/25 07:21:45;;;;;;;28.52;22.75;;;15.00;81.30;;;;;;5027065;28;20046;-88
2021/08/25 07:24:13;;;;;;;29.77;24.30;;;15.10;81.20;;;;;;5032012;28;20053;-87
2021/08/25 07:26:40;;;;;;;28.50;23.77;;;15.10;81.20;;;;;;5031533;28;20573;-86
2021/08/25 07:29:07;;;;;;;26.98;23.98;;;15.20;81.20;;;;;;5034744;28;20054;-90
2021/08/25 07:31:34;;;;;;;26.65;22.52;;;15.20;81.10;;;;;;5025708;28;20041;-92
2021/08/25 07:34:02;;;;;;;26.55;22.30;;;15.30;81.10;;;;;;5025868;28;20060;-91
2021/08/25 07:36:29;;;;;;;25.85;20.33;;;15.40;81.10;;;;;;5032909;28;20053;-94
2021/08/25 07:38:56;;;;;;;26.70;19.65;;;15.40;80.90;;;;;;5034549;28;20057;-93
2021/08/25 07:41:23;;;;;;;27.02;20.70;;;15.40;80.80;;;;;;5019841;28;20407;-95
2021/08/25 07:43:50;;;;;;;30.60;23.70;;;15.50;80.70;;;;;;5024143;28;20053;-94
2021/08/25 07:46:18;;;;;;;25.23;21.92;;;15.50;80.60;;;;;;5039107;28;20054;-94
2021/08/25 07:48:46;;;;;;;27.35;20.00;;;15.60;80.60;;;;;;5036100;28;20030;-93
2021/08/25 07:51:14;;;;;;;27.70;21.45;;;15.70;80.50;;;;;;5025749;28;20042;-94
2021/08/25 07:53:43;;;;;;;26.15;21.00;;;15.80;80.30;;;;;;5029348;28;20053;-94
2021/08/25 07:56:10;;;;;;;30.05;21.48;;;15.90;80.20;;;;;;5040815;28;20050;-94
2021/08/25 07:58:37;;;;;;;24.35;19.00;;;15.90;80.10;;;;;;5039202;28;20054;-94
2021/08/25 08:01:14;;;;;;;27.88;20.77;;;15.90;80.00;;;;;;5043501;28;20033;-95
2021/08/25 08:03:46;;;;;;;27.98;19.00;;;16.00;79.90;;;;;;5041749;28;20056;-93
2021/08/25 08:06:19;;;;;;;23.13;18.30;;;16.10;79.70;;;;;;5034224;28;20110;-94
2021/08/25 08:08:48;;;;;;;25.13;18.42;;;16.20;79.40;;;;;;5054133;28;20060;-94
2021/08/25 08:11:15;;;;;;;29.58;19.08;;;16.30;79.20;;;;;;5054214;28;20060;-93
2021/08/25 08:13:42;;;;;;;21.75;17.88;;;16.30;79.10;;;;;;5044020;28;20045;-94
2021/08/25 08:16:22;;;;;;;23.42;16.55;;;16.40;78.90;;;;;;5030860;28;20126;-94
2021/08/25 08:21:37;;;;;;;22.00;16.02;;;16.60;78.50;;;;;;5025815;28;20046;-94
2021/08/25 08:24:04;;;;;;;24.08;15.63;;;16.60;78.20;;;;;;5023022;28;20037;-91
2021/08/25 08:26:31;;;;;;;19.13;14.43;;;16.70;78.00;;;;;;5026992;28;20089;-94
2021/08/25 08:29:00;;;;;;;19.23;14.98;;;16.80;77.70;;;;;;5022300;28;20062;-94
2021/08/25 08:31:28;;;;;;;21.83;14.13;;;16.90;77.30;;;;;;5020200;28;20058;-91
2021/08/25 08:34:00;;;;;;;24.35;14.98;;;16.90;77.00;;;;;;5025801;28;20487;-94
2021/08/25 08:36:30;;;;;;;22.80;15.35;;;17.10;76.90;;;;;;5034052;28;20058;-94
2021/08/25 08:38:57;;;;;;;20.02;14.60;;;17.20;76.80;;;;;;5032194;28;20053;-92
2021/08/25 08:41:24;;;;;;;19.92;15.27;;;17.30;76.60;;;;;;5016010;28;20046;-92
2021/08/25 08:43:52;;;;;;;22.08;13.23;;;17.40;76.40;;;;;;5030977;28;20676;-90
2021/08/25 08:46:21;;;;;;;18.83;14.23;;;17.50;76.30;;;;;;5015368;28;20497;-91
2021/08/25 08:48:49;;;;;;;16.02;12.45;;;17.60;76.10;;;;;;5020838;28;20046;-90
2021/08/25 08:51:24;;;;;;;14.82;11.85;;;17.80;76.00;;;;;;5024572;28;20061;-93
2021/08/25 08:53:53;;;;;;;12.40;10.52;;;17.90;75.60;;;;;;5031696;28;20096;-96
2021/08/25 08:56:20;;;;;;;14.77;11.43;;;18.00;75.10;;;;;;5037309;28;20427;-91
2021/08/25 08:58:48;;;;;;;16.75;11.40;;;18.20;74.30;;;;;;5021332;28;20112;-94
2021/08/25 09:01:15;;;;;;;17.08;10.10;;;18.30;73.70;;;;;;5026060;28;20099;-95
2021/08/25 09:03:42;;;;;;;18.25;10.82;;;18.40;73.30;;;;;;5031638;28;20124;-94
2021/08/25 09:06:10;;;;;;;19.55;10.80;;;18.50;73.10;;;;;;5033596;28;20439;-93
2021/08/25 09:08:39;;;;;;;16.00;9.00;;;18.70;72.80;;;;;;5039302;28;20049;-94
2021/08/25 09:11:16;;;;;;;16.30;9.88;;;18.80;72.70;;;;;;5033305;28;20045;-95
2021/08/25 09:13:47;;;;;;;11.38;8.00;;;18.90;72.10;;;;;;5036598;28;20054;-95
2021/08/25 09:16:27;;;;;;;13.85;8.68;;;19.00;71.40;;;;;;5043417;28;20041;-93
2021/08/25 09:19:08;;;;;;;14.07;8.30;;;19.20;70.00;;;;;;5043489;28;20050;-94
2021/08/25 09:21:40;;;;;;;;;;;19.30;69.90;;;;;;5048636;28;20057;-93
2021/08/25 09:24:09;;;;;;;11.70;6.85;;;19.40;69.10;;;;;;5046453;28;19921;-93
2021/08/25 09:26:57;;;;;;;13.05;7.75;;;19.50;68.90;;;;;;5064145;28;20482;-94
2021/08/25 09:29:24;;;;;;;14.68;6.60;;;19.60;68.90;;;;;;5049500;28;20053;-94
2021/08/25 09:31:51;;;;;;;12.73;6.15;;;19.70;68.50;;;;;;5037298;28;20042;-93
2021/08/25 09:34:28;;;;;;;11.13;6.40;;;19.90;68.40;;;;;;5037257;28;20089;-94
2021/08/25 09:37:17;;;;;;;9.65;5.57;;;20.00;67.60;;;;;;5042693;28;20573;-94
2021/08/25 09:39:57;;;;;;;10.90;5.15;;;20.00;66.40;;;;;;5077131;28;20037;-94
2021/08/25 09:42:45;;;;;;;11.50;5.50;;;20.20;65.60;;;;;;5071674;28;20029;-95
2021/08/25 09:45:15;;;;;;;9.27;5.65;;;20.30;65.70;;;;;;5042039;28;20034;-93
2021/08/25 09:47:56;;;;;;;12.57;4.55;;;20.40;65.30;;;;;;5064165;28;20056;-95
2021/08/25 09:50:26;;;;;;;8.77;4.78;;;20.40;64.90;;;;;;5041216;28;20128;-94
2021/08/25 09:52:53;;;;;;;8.40;4.55;;;20.60;64.80;;;;;;5044626;28;20041;-94
2021/08/25 09:55:34;;;;;;;11.77;4.63;;;20.70;64.20;;;;;;5040939;28;20466;-95
2021/08/25 09:58:02;;;;;;;9.05;4.20;;;20.80;63.50;;;;;;5033122;28;20053;-93
2021/08/25 10:00:29;;;;;;;9.20;4.20;;;20.90;62.30;;;;;;5030542;28;20053;-95
2021/08/25 10:02:57;;;;;;;9.45;4.57;;;20.90;61.30;;;;;;5017109;28;20050;-93
2021/08/25 10:05:26;;;;;;;9.27;4.10;;;21.00;62.00;;;;;;5020833;28;20133;-94
2021/08/25 10:07:57;;;;;;;8.52;4.60;;;21.20;62.30;;;;;;5023070;28;20046;-93
2021/08/25 10:10:26;;;;;;;8.25;3.75;;;21.30;62.40;;;;;;5057212;28;20109;-95
2021/08/25 10:12:56;;;;;;;9.60;4.05;;;21.40;61.00;;;;;;5052866;28;20042;-94
2021/08/25 10:15:31;;;;;;;6.28;3.45;;;21.40;60.40;;;;;;5048735;28;20054;-95
2021/08/25 10:17:59;;;;;;;7.95;4.05;;;21.50;60.00;;;;;;5030761;28;20081;-93
2021/08/25 10:20:26;;;;;;;9.35;3.80;;;21.60;58.50;;;;;;5026529;28;20046;-95
2021/08/25 10:22:53;;;;;;;9.38;4.40;;;21.60;57.30;;;;;;5042954;28;20046;-92
2021/08/25 10:25:21;;;;;;;8.68;3.88;;;21.70;56.90;;;;;;5078768;28;20046;-94
2021/08/25 10:28:08;;;;;;;8.75;4.13;;;21.70;57.40;;;;;;5044278;28;20050;-94
2021/08/25 10:30:47;;;;;;;9.63;3.88;;;21.70;57.80;;;;;;5036433;28;20046;-94
2021/08/25 10:33:15;;;;;;;8.52;4.13;;;21.80;57.90;;;;;;5031580;28;20046;-93
2021/08/25 10:35:46;;;;;;;10.80;4.30;;;21.90;56.90;;;;;;5055315;28;20533;-93
2021/08/25 10:38:16;;;;;;;7.45;3.67;;;21.90;57.10;;;;;;5020903;28;20057;-95
2021/08/25 10:40:43;;;;;;;8.63;4.25;;;21.90;56.90;;;;;;5037101;28;20052;-92
2021/08/25 10:43:30;;;;;;;9.50;4.20;;;21.90;56.90;;;;;;5038270;28;20111;-93
2021/08/25 10:45:57;;;;;;;9.02;4.35;;;22.00;57.10;;;;;;5033082;28;20053;-95
2021/08/25 10:49:00;;;;;;;12.30;5.38;;;22.10;57.60;;;;;;5032916;28;20061;-93
2021/08/25 10:51:31;;;;;;;9.05;5.05;;;22.20;57.40;;;;;;5024532;28;20107;-92
2021/08/25 10:54:00;;;;;;;8.98;3.88;;;22.30;57.80;;;;;;5019525;28;20049;-92
2021/08/25 10:56:36;;;;;;;8.30;3.83;;;22.40;57.60;;;;;;5035264;28;20053;-95
2021/08/25 10:59:08;;;;;;;7.88;4.00;;;22.40;57.30;;;;;;5033319;28;20499;-93
2021/08/25 11:01:47;;;;;;;9.18;4.30;;;22.50;55.90;;;;;;5023253;28;20049;-92
2021/08/25 11:04:22;;;;;;;7.97;3.63;;;22.50;55.70;;;;;;5032729;28;20408;-92
2021/08/25 11:06:52;;;;;;;9.20;4.57;;;22.60;55.90;;;;;;5060489;28;20046;-93
2021/08/25 11:09:32;;;;;;;6.30;3.42;;;22.70;56.10;;;;;;5033275;28;20050;-94
2021/08/25 11:12:09;;;;;;;14.40;3.97;;;22.80;55.80;;;;;;5062835;28;20049;-94
2021/08/25 11:14:36;;;;;;;10.48;4.20;;;22.80;55.70;;;;;;5035115;28;20096;-93
2021/08/25 11:17:17;;;;;;;7.10;4.00;;;22.90;56.00;;;;;;5016299;28;20116;-93
2021/08/25 11:19:58;;;;;;;9.38;4.03;;;23.00;55.80;;;;;;5026513;28;20050;-95
2021/08/25 11:22:32;;;;;;;8.88;4.05;;;23.10;55.00;;;;;;5024443;28;20104;-94
2021/08/25 11:25:04;;;;;;;8.50;4.60;;;23.10;54.00;;;;;;5024711;28;20054;-93
2021/08/25 11:27:36;;;;;;;10.15;4.97;;;23.20;53.90;;;;;;5025268;28;20045;-92
2021/08/25 11:30:09;;;;;;;12.85;3.70;;;23.20;53.10;;;;;;5031478;28;20096;-91
2021/08/25 11:32:56;;;;;;;7.18;4.32;;;23.20;53.50;;;;;;5048269;28;20038;-95
2021/08/25 11:35:26;;;;;;;8.40;4.22;;;23.30;54.50;;;;;;5067888;28;20561;-95
2021/08/25 11:37:55;;;;;;;8.60;3.80;;;23.40;54.70;;;;;;5015537;28;20112;-95
2021/08/25 11:40:24;;;;;;;11.00;4.50;;;23.40;55.30;;;;;;5020889;28;20057;-91
2021/08/25 11:42:52;;;;;;;8.98;4.25;;;23.50;55.00;;;;;;5026558;28;20045;-94
2021/08/25 11:45:21;;;;;;;9.27;3.75;;;23.60;54.40;;;;;;5064721;28;20073;-93
2021/08/25 11:47:52;;;;;;;6.90;3.80;;;23.80;53.90;;;;;;5020606;28;20447;-90
2021/08/25 11:50:22;;;;;;;9.75;4.40;;;23.80;53.80;;;;;;5036038;28;20462;-94
2021/08/25 11:52:50;;;;;;;10.70;4.43;;;23.90;53.80;;;;;;5020531;28;20488;-94
2021/08/25 11:55:18;;;;;;;9.25;4.22;;;23.90;52.90;;;;;;5036918;28;20095;-92
2021/08/25 11:57:53;;;;;;;7.13;3.80;;;24.00;52.90;;;;;;5026657;28;20056;-92
2021/08/25 12:00:44;;;;;;;7.85;3.45;;;24.10;53.10;;;;;;5035298;28;20046;-95
2021/08/25 12:03:11;;;;;;;9.32;4.07;;;24.20;53.40;;;;;;5020301;28;20092;-91
2021/08/25 12:05:51;;;;;;;8.60;4.68;;;24.20;52.80;;;;;;5015593;28;20053;-93
2021/08/25 12:08:19;;;;;;;7.93;4.45;;;24.30;52.80;;;;;;5013781;28;20057;-90
2021/08/25 12:11:01;;;;;;;8.85;3.47;;;24.40;52.70;;;;;;5026197;28;20057;-93
2021/08/25 12:13:47;;;;;;;7.07;3.35;;;24.40;52.80;;;;;;5030339;28;20057;-91
2021/08/25 12:16:21;;;;;;;7.53;4.13;;;24.50;52.30;;;;;;5023864;28;20531;-90
2021/08/25 12:18:52;;;;;;;7.57;4.32;;;24.60;52.00;;;;;;5018756;28;20050;-91
2021/08/25 12:21:19;;;;;;;8.65;4.22;;;24.60;51.90;;;;;;5017668;28;20057;-92
2021/08/25 12:24:04;;;;;;;10.52;3.75;;;24.60;51.20;;;;;;5017374;28;20038;-90
2021/08/25 12:26:34;;;;;;;15.02;4.13;;;24.70;51.40;;;;;;5017168;28;20133;-91
2021/08/25 12:29:04;;;;;;;7.38;4.00;;;24.70;50.70;;;;;;5020168;28;20054;-94
2021/08/25 12:31:32;;;;;;;7.97;4.25;;;24.80;50.60;;;;;;5028866;28;20049;-94
2021/08/25 12:34:16;;;;;;;8.65;4.50;;;24.80;51.20;;;;;;5035800;28;20049;-91
2021/08/25 12:37:00;;;;;;;13.00;4.25;;;24.80;51.10;;;;;;5031651;28;20107;-94
2021/08/25 12:39:42;;;;;;;7.88;4.28;;;24.80;50.70;;;;;;5031386;28;20057;-93
2021/08/25 12:42:09;;;;;;;9.65;3.80;;;24.80;50.40;;;;;;5031218;28;20049;-94
2021/08/25 12:44:36;;;;;;;10.25;4.25;;;24.80;50.30;;;;;;5018899;28;20060;-93
2021/08/25 12:47:05;;;;;;;9.00;3.90;;;24.80;49.40;;;;;;5025752;28;20563;-92